sensor_id;sensor_type;location;lat;lon;timestamp;P1;durP1;ratioP1;P2;durP2;ratioP2
43835;SDS011;39345;43.964;25.340;2023-12-20T00:02:26;140.90;;;76.78;;
43835;SDS011;39345;43.964;25.340;2023-12-20T00:04:54;135.25;;;73.65;;
43835;SDS011;39345;43.964;25.340;2023-12-20T00:07:22;136.35;;;72.20;;
43835;SDS011;39345;43.964;25.340;2023-12-20T00:09:49;129.50;;;72.40;;
43835;SDS011;39345;43.964;25.340;2023-12-20T00:12:17;133.90;;;73.70;;
43835;SDS011;39345;43.964;25.340;2023-12-20T00:14:44;140.13;;;73.00;;
43835;SDS011;39345;43.964;25.340;2023-12-20T00:17:12;130.20;;;69.85;;
43835;SDS011;39345;43.964;25.340;2023-12-20T00:19:40;133.45;;;71.55;;
43835;SDS011;39345;43.964;25.340;2023-12-20T00:22:07;146.93;;;74.03;;
43835;SDS011;39345;43.964;25.340;2023-12-20T00:24:35;134.15;;;73.82;;
43835;SDS011;39345;43.964;25.340;2023-12-20T00:27:03;150.38;;;75.25;;
43835;SDS011;39345;43.964;25.340;2023-12-20T00:29:30;138.88;;;74.60;;
43835;SDS011;39345;43.964;25.340;2023-12-20T00:31:58;138.88;;;74.22;;
43835;SDS011;39345;43.964;25.340;2023-12-20T00:34:25;144.32;;;76.13;;
43835;SDS011;39345;43.964;25.340;2023-12-20T00:36:53;137.32;;;74.78;;
43835;SDS011;39345;43.964;25.340;2023-12-20T00:39:21;137.88;;;73.88;;
43835;SDS011;39345;43.964;25.340;2023-12-20T00:41:49;143.38;;;77.60;;
43835;SDS011;39345;43.964;25.340;2023-12-20T00:44:16;128.23;;;68.53;;
43835;SDS011;39345;43.964;25.340;2023-12-20T00:46:44;128.65;;;68.57;;
43835;SDS011;39345;43.964;25.340;2023-12-20T00:49:11;132.98;;;68.55;;
43835;SDS011;39345;43.964;25.340;2023-12-20T00:51:39;132.30;;;70.22;;
43835;SDS011;39345;43.964;25.340;2023-12-20T00:54:07;138.77;;;70.63;;
43835;SDS011;39345;43.964;25.340;2023-12-20T00:56:35;131.18;;;69.53;;
43835;SDS011;39345;43.964;25.340;2023-12-20T00:59:02;133.93;;;69.30;;
43835;SDS011;39345;43.964;25.340;2023-12-20T01:01:30;123.25;;;68.50;;
43835;SDS011;39345;43.964;25.340;2023-12-20T01:03:59;131.60;;;68.97;;
43835;SDS011;39345;43.964;25.340;2023-12-20T01:06:27;131.82;;;68.43;;
43835;SDS011;39345;43.964;25.340;2023-12-20T01:08:55;137.85;;;73.10;;
43835;SDS011;39345;43.964;25.340;2023-12-20T01:11:22;131.82;;;65.72;;
43835;SDS011;39345;43.964;25.340;2023-12-20T01:13:49;111.10;;;62.95;;
43835;SDS011;39345;43.964;25.340;2023-12-20T01:16:17;117.47;;;63.65;;
43835;SDS011;39345;43.964;25.340;2023-12-20T01:18:45;117.60;;;64.78;;
43835;SDS011;39345;43.964;25.340;2023-12-20T01:21:12;113.75;;;65.40;;
43835;SDS011;39345;43.964;25.340;2023-12-20T01:23:40;114.80;;;63.05;;
43835;SDS011;39345;43.964;25.340;2023-12-20T01:26:08;117.97;;;64.72;;
43835;SDS011;39345;43.964;25.340;2023-12-20T01:28:36;141.45;;;66.57;;
43835;SDS011;39345;43.964;25.340;2023-12-20T01:31:04;142.75;;;69.97;;
43835;SDS011;39345;43.964;25.340;2023-12-20T01:33:31;145.60;;;68.65;;
43835;SDS011;39345;43.964;25.340;2023-12-20T01:35:59;168.57;;;73.15;;
43835;SDS011;39345;43.964;25.340;2023-12-20T01:38:27;203.88;;;75.35;;
43835;SDS011;39345;43.964;25.340;2023-12-20T01:40:54;213.60;;;78.85;;
43835;SDS011;39345;43.964;25.340;2023-12-20T01:43:22;197.68;;;82.70;;
43835;SDS011;39345;43.964;25.340;2023-12-20T01:45:54;218.60;;;83.38;;
43835;SDS011;39345;43.964;25.340;2023-12-20T01:48:22;260.13;;;88.63;;
43835;SDS011;39345;43.964;25.340;2023-12-20T01:50:50;266.17;;;94.57;;
43835;SDS011;39345;43.964;25.340;2023-12-20T01:53:18;237.52;;;95.97;;
43835;SDS011;39345;43.964;25.340;2023-12-20T01:55:48;248.07;;;98.97;;
43835;SDS011;39345;43.964;25.340;2023-12-20T01:58:17;223.30;;;92.85;;
43835;SDS011;39345;43.964;25.340;2023-12-20T02:00:46;229.30;;;95.10;;
43835;SDS011;39345;43.964;25.340;2023-12-20T02:03:14;236.88;;;95.40;;
43835;SDS011;39345;43.964;25.340;2023-12-20T02:05:41;226.32;;;98.20;;
43835;SDS011;39345;43.964;25.340;2023-12-20T02:08:09;252.30;;;96.68;;
43835;SDS011;39345;43.964;25.340;2023-12-20T02:10:36;222.57;;;93.75;;
43835;SDS011;39345;43.964;25.340;2023-12-20T02:13:04;185.27;;;82.10;;
43835;SDS011;39345;43.964;25.340;2023-12-20T02:15:31;213.60;;;80.20;;
43835;SDS011;39345;43.964;25.340;2023-12-20T02:17:59;216.10;;;80.60;;
43835;SDS011;39345;43.964;25.340;2023-12-20T02:20:27;231.82;;;80.38;;
43835;SDS011;39345;43.964;25.340;2023-12-20T02:22:54;241.00;;;84.20;;
43835;SDS011;39345;43.964;25.340;2023-12-20T02:25:22;243.15;;;83.93;;
43835;SDS011;39345;43.964;25.340;2023-12-20T02:27:49;245.32;;;82.15;;
43835;SDS011;39345;43.964;25.340;2023-12-20T02:30:17;250.65;;;87.10;;
43835;SDS011;39345;43.964;25.340;2023-12-20T02:32:45;271.35;;;90.88;;
43835;SDS011;39345;43.964;25.340;2023-12-20T02:35:12;220.85;;;85.38;;
43835;SDS011;39345;43.964;25.340;2023-12-20T02:37:40;243.95;;;85.30;;
43835;SDS011;39345;43.964;25.340;2023-12-20T02:40:08;223.10;;;89.50;;
43835;SDS011;39345;43.964;25.340;2023-12-20T02:42:36;259.42;;;87.40;;
43835;SDS011;39345;43.964;25.340;2023-12-20T02:45:04;237.73;;;83.63;;
43835;SDS011;39345;43.964;25.340;2023-12-20T02:47:32;229.73;;;81.05;;
43835;SDS011;39345;43.964;25.340;2023-12-20T02:49:59;213.15;;;79.57;;
43835;SDS011;39345;43.964;25.340;2023-12-20T02:52:28;199.35;;;80.57;;
43835;SDS011;39345;43.964;25.340;2023-12-20T02:54:56;245.15;;;77.30;;
43835;SDS011;39345;43.964;25.340;2023-12-20T02:57:24;227.38;;;76.72;;
43835;SDS011;39345;43.964;25.340;2023-12-20T02:59:51;197.63;;;77.85;;
43835;SDS011;39345;43.964;25.340;2023-12-20T03:02:19;195.90;;;77.18;;
43835;SDS011;39345;43.964;25.340;2023-12-20T03:04:46;193.80;;;75.25;;
43835;SDS011;39345;43.964;25.340;2023-12-20T03:07:14;191.68;;;73.28;;
43835;SDS011;39345;43.964;25.340;2023-12-20T03:09:42;176.52;;;72.10;;
43835;SDS011;39345;43.964;25.340;2023-12-20T03:12:29;176.13;;;67.47;;
43835;SDS011;39345;43.964;25.340;2023-12-20T03:14:57;165.35;;;66.43;;
43835;SDS011;39345;43.964;25.340;2023-12-20T03:17:24;159.82;;;65.22;;
43835;SDS011;39345;43.964;25.340;2023-12-20T03:19:52;154.52;;;62.50;;
43835;SDS011;39345;43.964;25.340;2023-12-20T03:22:19;163.07;;;62.60;;
43835;SDS011;39345;43.964;25.340;2023-12-20T03:24:47;168.50;;;67.32;;
43835;SDS011;39345;43.964;25.340;2023-12-20T03:27:14;161.02;;;65.15;;
43835;SDS011;39345;43.964;25.340;2023-12-20T03:29:42;172.40;;;68.72;;
43835;SDS011;39345;43.964;25.340;2023-12-20T03:32:09;145.00;;;61.58;;
43835;SDS011;39345;43.964;25.340;2023-12-20T03:34:37;142.23;;;63.00;;
43835;SDS011;39345;43.964;25.340;2023-12-20T03:37:05;171.68;;;63.35;;
43835;SDS011;39345;43.964;25.340;2023-12-20T03:39:32;152.20;;;60.72;;
43835;SDS011;39345;43.964;25.340;2023-12-20T03:42:00;150.30;;;60.47;;
43835;SDS011;39345;43.964;25.340;2023-12-20T03:44:27;145.85;;;57.35;;
43835;SDS011;39345;43.964;25.340;2023-12-20T03:46:55;122.40;;;56.25;;
43835;SDS011;39345;43.964;25.340;2023-12-20T03:49:23;140.25;;;57.30;;
43835;SDS011;39345;43.964;25.340;2023-12-20T03:51:50;134.23;;;56.70;;
43835;SDS011;39345;43.964;25.340;2023-12-20T03:54:18;139.13;;;56.42;;
43835;SDS011;39345;43.964;25.340;2023-12-20T03:56:46;131.52;;;56.92;;
43835;SDS011;39345;43.964;25.340;2023-12-20T03:59:13;137.40;;;57.83;;
43835;SDS011;39345;43.964;25.340;2023-12-20T04:01:44;127.70;;;58.10;;
43835;SDS011;39345;43.964;25.340;2023-12-20T04:04:12;137.18;;;58.83;;
43835;SDS011;39345;43.964;25.340;2023-12-20T04:06:40;127.63;;;57.35;;
43835;SDS011;39345;43.964;25.340;2023-12-20T04:09:08;143.15;;;59.95;;
43835;SDS011;39345;43.964;25.340;2023-12-20T04:11:38;141.45;;;59.55;;
43835;SDS011;39345;43.964;25.340;2023-12-20T04:14:06;124.63;;;56.45;;
43835;SDS011;39345;43.964;25.340;2023-12-20T04:16:34;115.10;;;56.97;;
43835;SDS011;39345;43.964;25.340;2023-12-20T04:19:01;115.80;;;51.38;;
43835;SDS011;39345;43.964;25.340;2023-12-20T04:21:29;109.75;;;52.40;;
43835;SDS011;39345;43.964;25.340;2023-12-20T04:23:57;112.28;;;51.53;;
43835;SDS011;39345;43.964;25.340;2023-12-20T04:26:24;117.22;;;50.78;;
43835;SDS011;39345;43.964;25.340;2023-12-20T04:28:52;107.90;;;51.13;;
43835;SDS011;39345;43.964;25.340;2023-12-20T04:31:20;95.13;;;47.10;;
43835;SDS011;39345;43.964;25.340;2023-12-20T04:33:48;96.82;;;47.40;;
43835;SDS011;39345;43.964;25.340;2023-12-20T04:36:16;91.95;;;45.70;;
43835;SDS011;39345;43.964;25.340;2023-12-20T04:38:43;101.05;;;46.70;;
43835;SDS011;39345;43.964;25.340;2023-12-20T04:41:11;97.45;;;45.50;;
43835;SDS011;39345;43.964;25.340;2023-12-20T04:43:42;90.15;;;43.80;;
43835;SDS011;39345;43.964;25.340;2023-12-20T04:46:09;90.13;;;42.72;;
43835;SDS011;39345;43.964;25.340;2023-12-20T04:48:37;94.90;;;42.05;;
43835;SDS011;39345;43.964;25.340;2023-12-20T04:51:05;91.07;;;42.30;;
43835;SDS011;39345;43.964;25.340;2023-12-20T04:53:32;98.93;;;47.13;;
43835;SDS011;39345;43.964;25.340;2023-12-20T04:56:00;106.63;;;49.88;;
43835;SDS011;39345;43.964;25.340;2023-12-20T04:58:27;111.60;;;53.67;;
43835;SDS011;39345;43.964;25.340;2023-12-20T05:00:55;107.90;;;52.00;;
43835;SDS011;39345;43.964;25.340;2023-12-20T05:03:23;133.68;;;54.85;;
43835;SDS011;39345;43.964;25.340;2023-12-20T05:05:50;125.88;;;56.72;;
43835;SDS011;39345;43.964;25.340;2023-12-20T05:08:18;157.05;;;62.38;;
43835;SDS011;39345;43.964;25.340;2023-12-20T05:10:46;153.88;;;67.60;;
43835;SDS011;39345;43.964;25.340;2023-12-20T05:13:13;143.50;;;64.07;;
43835;SDS011;39345;43.964;25.340;2023-12-20T05:15:42;143.63;;;67.90;;
43835;SDS011;39345;43.964;25.340;2023-12-20T05:18:09;189.73;;;76.20;;
43835;SDS011;39345;43.964;25.340;2023-12-20T05:20:39;164.30;;;70.07;;
43835;SDS011;39345;43.964;25.340;2023-12-20T05:23:07;176.05;;;69.35;;
43835;SDS011;39345;43.964;25.340;2023-12-20T05:25:35;173.85;;;74.63;;
43835;SDS011;39345;43.964;25.340;2023-12-20T05:28:03;158.32;;;71.68;;
43835;SDS011;39345;43.964;25.340;2023-12-20T05:30:30;178.45;;;70.13;;
43835;SDS011;39345;43.964;25.340;2023-12-20T05:32:58;191.38;;;70.90;;
43835;SDS011;39345;43.964;25.340;2023-12-20T05:35:25;165.70;;;71.70;;
43835;SDS011;39345;43.964;25.340;2023-12-20T05:37:53;174.70;;;71.93;;
43835;SDS011;39345;43.964;25.340;2023-12-20T05:40:21;146.07;;;67.80;;
43835;SDS011;39345;43.964;25.340;2023-12-20T05:42:48;141.98;;;64.70;;
43835;SDS011;39345;43.964;25.340;2023-12-20T05:45:16;129.45;;;62.25;;
43835;SDS011;39345;43.964;25.340;2023-12-20T05:47:43;137.13;;;62.47;;
43835;SDS011;39345;43.964;25.340;2023-12-20T05:50:11;129.73;;;62.28;;
43835;SDS011;39345;43.964;25.340;2023-12-20T05:52:38;129.10;;;59.97;;
43835;SDS011;39345;43.964;25.340;2023-12-20T05:55:06;126.75;;;60.75;;
43835;SDS011;39345;43.964;25.340;2023-12-20T05:57:34;141.50;;;61.58;;
43835;SDS011;39345;43.964;25.340;2023-12-20T06:00:02;130.57;;;61.03;;
43835;SDS011;39345;43.964;25.340;2023-12-20T06:02:37;130.80;;;59.92;;
43835;SDS011;39345;43.964;25.340;2023-12-20T06:05:05;134.00;;;61.90;;
43835;SDS011;39345;43.964;25.340;2023-12-20T06:07:33;140.40;;;62.40;;
43835;SDS011;39345;43.964;25.340;2023-12-20T06:10:00;160.63;;;66.15;;
43835;SDS011;39345;43.964;25.340;2023-12-20T06:12:28;171.70;;;70.05;;
43835;SDS011;39345;43.964;25.340;2023-12-20T06:14:58;153.02;;;69.25;;
43835;SDS011;39345;43.964;25.340;2023-12-20T06:17:26;150.43;;;69.88;;
43835;SDS011;39345;43.964;25.340;2023-12-20T06:19:53;166.35;;;71.30;;
43835;SDS011;39345;43.964;25.340;2023-12-20T06:22:21;176.88;;;72.22;;
43835;SDS011;39345;43.964;25.340;2023-12-20T06:24:48;161.77;;;74.90;;
43835;SDS011;39345;43.964;25.340;2023-12-20T06:27:16;158.30;;;75.40;;
43835;SDS011;39345;43.964;25.340;2023-12-20T06:29:44;180.15;;;79.75;;
43835;SDS011;39345;43.964;25.340;2023-12-20T06:32:11;160.60;;;76.15;;
43835;SDS011;39345;43.964;25.340;2023-12-20T06:34:39;176.80;;;79.43;;
43835;SDS011;39345;43.964;25.340;2023-12-20T06:37:06;163.23;;;72.60;;
43835;SDS011;39345;43.964;25.340;2023-12-20T06:39:34;140.88;;;65.50;;
43835;SDS011;39345;43.964;25.340;2023-12-20T06:42:02;122.57;;;59.78;;
43835;SDS011;39345;43.964;25.340;2023-12-20T06:44:29;117.93;;;59.17;;
43835;SDS011;39345;43.964;25.340;2023-12-20T06:46:58;119.55;;;59.95;;
43835;SDS011;39345;43.964;25.340;2023-12-20T06:49:25;131.80;;;60.47;;
43835;SDS011;39345;43.964;25.340;2023-12-20T06:51:53;117.28;;;58.67;;
43835;SDS011;39345;43.964;25.340;2023-12-20T06:54:21;125.20;;;59.25;;
43835;SDS011;39345;43.964;25.340;2023-12-20T06:56:48;112.55;;;57.88;;
43835;SDS011;39345;43.964;25.340;2023-12-20T06:59:16;130.05;;;65.38;;
43835;SDS011;39345;43.964;25.340;2023-12-20T07:01:47;126.03;;;64.13;;
43835;SDS011;39345;43.964;25.340;2023-12-20T07:04:15;131.80;;;61.63;;
43835;SDS011;39345;43.964;25.340;2023-12-20T07:06:47;111.85;;;58.53;;
43835;SDS011;39345;43.964;25.340;2023-12-20T07:09:18;120.03;;;63.40;;
43835;SDS011;39345;43.964;25.340;2023-12-20T07:11:46;123.18;;;64.70;;
43835;SDS011;39345;43.964;25.340;2023-12-20T07:14:14;128.88;;;65.05;;
43835;SDS011;39345;43.964;25.340;2023-12-20T07:16:41;124.05;;;62.40;;
43835;SDS011;39345;43.964;25.340;2023-12-20T07:19:09;114.10;;;59.90;;
43835;SDS011;39345;43.964;25.340;2023-12-20T07:21:36;104.95;;;56.65;;
43835;SDS011;39345;43.964;25.340;2023-12-20T07:24:04;108.85;;;57.40;;
43835;SDS011;39345;43.964;25.340;2023-12-20T07:26:32;109.78;;;59.15;;
43835;SDS011;39345;43.964;25.340;2023-12-20T07:29:00;119.32;;;64.70;;
43835;SDS011;39345;43.964;25.340;2023-12-20T07:31:28;116.15;;;61.33;;
43835;SDS011;39345;43.964;25.340;2023-12-20T07:33:55;114.50;;;61.72;;
43835;SDS011;39345;43.964;25.340;2023-12-20T07:36:23;108.57;;;58.85;;
43835;SDS011;39345;43.964;25.340;2023-12-20T07:38:51;118.70;;;63.13;;
43835;SDS011;39345;43.964;25.340;2023-12-20T07:41:18;113.25;;;61.75;;
43835;SDS011;39345;43.964;25.340;2023-12-20T07:43:47;108.13;;;57.92;;
43835;SDS011;39345;43.964;25.340;2023-12-20T07:46:15;97.15;;;55.20;;
43835;SDS011;39345;43.964;25.340;2023-12-20T07:48:45;93.00;;;52.22;;
43835;SDS011;39345;43.964;25.340;2023-12-20T07:51:13;96.50;;;52.55;;
43835;SDS011;39345;43.964;25.340;2023-12-20T07:53:40;92.20;;;51.38;;
43835;SDS011;39345;43.964;25.340;2023-12-20T07:56:17;98.95;;;55.40;;
43835;SDS011;39345;43.964;25.340;2023-12-20T07:58:45;107.47;;;59.83;;
43835;SDS011;39345;43.964;25.340;2023-12-20T08:01:19;109.05;;;61.03;;
43835;SDS011;39345;43.964;25.340;2023-12-20T08:03:48;117.68;;;67.07;;
43835;SDS011;39345;43.964;25.340;2023-12-20T08:06:16;140.57;;;73.95;;
43835;SDS011;39345;43.964;25.340;2023-12-20T08:08:44;140.30;;;74.25;;
43835;SDS011;39345;43.964;25.340;2023-12-20T08:11:20;178.23;;;92.82;;
43835;SDS011;39345;43.964;25.340;2023-12-20T08:13:48;205.02;;;102.88;;
43835;SDS011;39345;43.964;25.340;2023-12-20T08:16:15;209.70;;;107.75;;
43835;SDS011;39345;43.964;25.340;2023-12-20T08:18:44;179.00;;;96.43;;
43835;SDS011;39345;43.964;25.340;2023-12-20T08:21:12;169.38;;;91.53;;
43835;SDS011;39345;43.964;25.340;2023-12-20T08:23:40;174.60;;;95.20;;
43835;SDS011;39345;43.964;25.340;2023-12-20T08:26:07;178.18;;;92.32;;
43835;SDS011;39345;43.964;25.340;2023-12-20T08:28:36;163.32;;;87.40;;
43835;SDS011;39345;43.964;25.340;2023-12-20T08:31:04;169.93;;;89.07;;
43835;SDS011;39345;43.964;25.340;2023-12-20T08:33:32;154.55;;;84.20;;
43835;SDS011;39345;43.964;25.340;2023-12-20T08:35:59;154.05;;;85.75;;
43835;SDS011;39345;43.964;25.340;2023-12-20T08:38:31;146.93;;;84.15;;
43835;SDS011;39345;43.964;25.340;2023-12-20T08:40:59;171.52;;;89.78;;
43835;SDS011;39345;43.964;25.340;2023-12-20T08:43:27;153.85;;;84.10;;
43835;SDS011;39345;43.964;25.340;2023-12-20T08:45:55;157.63;;;82.68;;
43835;SDS011;39345;43.964;25.340;2023-12-20T08:48:22;147.80;;;83.05;;
43835;SDS011;39345;43.964;25.340;2023-12-20T08:50:50;145.10;;;78.70;;
43835;SDS011;39345;43.964;25.340;2023-12-20T08:53:18;153.50;;;82.80;;
43835;SDS011;39345;43.964;25.340;2023-12-20T08:55:46;146.02;;;77.05;;
43835;SDS011;39345;43.964;25.340;2023-12-20T08:58:14;144.80;;;76.22;;
43835;SDS011;39345;43.964;25.340;2023-12-20T09:00:41;137.50;;;74.40;;
43835;SDS011;39345;43.964;25.340;2023-12-20T09:03:09;168.65;;;86.22;;
43835;SDS011;39345;43.964;25.340;2023-12-20T09:05:36;159.48;;;87.03;;
43835;SDS011;39345;43.964;25.340;2023-12-20T09:08:04;158.43;;;83.97;;
43835;SDS011;39345;43.964;25.340;2023-12-20T09:10:32;151.05;;;80.38;;
43835;SDS011;39345;43.964;25.340;2023-12-20T09:12:59;139.90;;;79.35;;
43835;SDS011;39345;43.964;25.340;2023-12-20T09:15:27;135.60;;;81.35;;
43835;SDS011;39345;43.964;25.340;2023-12-20T09:18:01;152.90;;;87.07;;
43835;SDS011;39345;43.964;25.340;2023-12-20T09:20:29;149.73;;;93.25;;
43835;SDS011;39345;43.964;25.340;2023-12-20T09:22:56;149.32;;;91.43;;
43835;SDS011;39345;43.964;25.340;2023-12-20T09:25:24;139.90;;;86.65;;
43835;SDS011;39345;43.964;25.340;2023-12-20T09:27:53;146.02;;;87.97;;
43835;SDS011;39345;43.964;25.340;2023-12-20T09:30:20;143.45;;;84.30;;
43835;SDS011;39345;43.964;25.340;2023-12-20T09:32:53;137.30;;;82.35;;
43835;SDS011;39345;43.964;25.340;2023-12-20T09:35:22;119.95;;;72.72;;
43835;SDS011;39345;43.964;25.340;2023-12-20T09:37:50;111.07;;;67.22;;
43835;SDS011;39345;43.964;25.340;2023-12-20T09:40:18;103.70;;;62.10;;
43835;SDS011;39345;43.964;25.340;2023-12-20T09:45:13;101.55;;;62.20;;
43835;SDS011;39345;43.964;25.340;2023-12-20T09:47:45;94.53;;;56.67;;
43835;SDS011;39345;43.964;25.340;2023-12-20T09:50:13;92.60;;;53.05;;
43835;SDS011;39345;43.964;25.340;2023-12-20T09:52:41;79.85;;;45.63;;
43835;SDS011;39345;43.964;25.340;2023-12-20T09:55:09;69.93;;;38.55;;
43835;SDS011;39345;43.964;25.340;2023-12-20T09:57:36;58.80;;;35.17;;
43835;SDS011;39345;43.964;25.340;2023-12-20T10:00:04;49.08;;;30.85;;
43835;SDS011;39345;43.964;25.340;2023-12-20T10:02:38;50.17;;;31.10;;
43835;SDS011;39345;43.964;25.340;2023-12-20T10:05:07;51.53;;;29.92;;
43835;SDS011;39345;43.964;25.340;2023-12-20T10:07:35;58.05;;;29.67;;
43835;SDS011;39345;43.964;25.340;2023-12-20T10:10:03;38.40;;;24.20;;
43835;SDS011;39345;43.964;25.340;2023-12-20T10:12:32;30.42;;;19.50;;
43835;SDS011;39345;43.964;25.340;2023-12-20T10:14:59;27.63;;;16.75;;
43835;SDS011;39345;43.964;25.340;2023-12-20T10:17:27;27.33;;;16.48;;
43835;SDS011;39345;43.964;25.340;2023-12-20T10:19:55;23.38;;;15.98;;
43835;SDS011;39345;43.964;25.340;2023-12-20T10:22:24;23.23;;;16.02;;
43835;SDS011;39345;43.964;25.340;2023-12-20T10:24:51;25.52;;;17.45;;
43835;SDS011;39345;43.964;25.340;2023-12-20T10:27:19;20.42;;;14.80;;
43835;SDS011;39345;43.964;25.340;2023-12-20T10:29:47;23.30;;;13.23;;
43835;SDS011;39345;43.964;25.340;2023-12-20T10:32:21;14.15;;;9.93;;
43835;SDS011;39345;43.964;25.340;2023-12-20T10:34:51;16.35;;;9.40;;
43835;SDS011;39345;43.964;25.340;2023-12-20T10:37:19;14.30;;;9.77;;
43835;SDS011;39345;43.964;25.340;2023-12-20T10:39:50;14.32;;;9.32;;
43835;SDS011;39345;43.964;25.340;2023-12-20T10:42:36;13.52;;;9.38;;
43835;SDS011;39345;43.964;25.340;2023-12-20T10:45:04;15.52;;;10.80;;
43835;SDS011;39345;43.964;25.340;2023-12-20T10:47:32;14.18;;;10.30;;
43835;SDS011;39345;43.964;25.340;2023-12-20T10:50:02;15.75;;;10.27;;
43835;SDS011;39345;43.964;25.340;2023-12-20T10:52:32;16.77;;;11.32;;
43835;SDS011;39345;43.964;25.340;2023-12-20T10:55:01;14.98;;;10.40;;
43835;SDS011;39345;43.964;25.340;2023-12-20T10:57:29;17.42;;;10.35;;
43835;SDS011;39345;43.964;25.340;2023-12-20T10:59:57;16.38;;;11.15;;
43835;SDS011;39345;43.964;25.340;2023-12-20T11:02:26;17.25;;;11.80;;
43835;SDS011;39345;43.964;25.340;2023-12-20T11:04:59;19.92;;;11.88;;
43835;SDS011;39345;43.964;25.340;2023-12-20T11:07:42;15.00;;;10.80;;
43835;SDS011;39345;43.964;25.340;2023-12-20T11:10:16;21.25;;;11.48;;
43835;SDS011;39345;43.964;25.340;2023-12-20T11:15:12;19.15;;;11.85;;
43835;SDS011;39345;43.964;25.340;2023-12-20T11:17:39;18.42;;;11.82;;
43835;SDS011;39345;43.964;25.340;2023-12-20T11:20:07;22.08;;;13.65;;
43835;SDS011;39345;43.964;25.340;2023-12-20T11:22:37;18.83;;;13.02;;
43835;SDS011;39345;43.964;25.340;2023-12-20T11:25:09;20.15;;;12.30;;
43835;SDS011;39345;43.964;25.340;2023-12-20T11:27:40;19.40;;;11.20;;
43835;SDS011;39345;43.964;25.340;2023-12-20T11:30:11;15.48;;;10.73;;
43835;SDS011;39345;43.964;25.340;2023-12-20T11:32:38;15.85;;;10.68;;
43835;SDS011;39345;43.964;25.340;2023-12-20T11:37:35;13.73;;;9.82;;
43835;SDS011;39345;43.964;25.340;2023-12-20T11:40:07;16.20;;;9.65;;
43835;SDS011;39345;43.964;25.340;2023-12-20T11:42:38;14.63;;;9.90;;
43835;SDS011;39345;43.964;25.340;2023-12-20T11:45:10;13.93;;;10.45;;
43835;SDS011;39345;43.964;25.340;2023-12-20T11:47:40;15.00;;;11.07;;
43835;SDS011;39345;43.964;25.340;2023-12-20T11:50:08;15.13;;;11.00;;
43835;SDS011;39345;43.964;25.340;2023-12-20T11:52:35;15.25;;;10.13;;
43835;SDS011;39345;43.964;25.340;2023-12-20T11:55:03;14.50;;;9.60;;
43835;SDS011;39345;43.964;25.340;2023-12-20T11:57:31;12.50;;;9.18;;
43835;SDS011;39345;43.964;25.340;2023-12-20T11:59:59;14.45;;;8.60;;
43835;SDS011;39345;43.964;25.340;2023-12-20T12:02:37;12.45;;;8.45;;
43835;SDS011;39345;43.964;25.340;2023-12-20T12:05:05;12.80;;;9.00;;
43835;SDS011;39345;43.964;25.340;2023-12-20T12:07:33;12.73;;;8.90;;
43835;SDS011;39345;43.964;25.340;2023-12-20T12:10:01;16.63;;;9.23;;
43835;SDS011;39345;43.964;25.340;2023-12-20T12:12:30;18.45;;;10.18;;
43835;SDS011;39345;43.964;25.340;2023-12-20T12:14:59;16.05;;;10.95;;
43835;SDS011;39345;43.964;25.340;2023-12-20T12:17:26;17.13;;;10.85;;
43835;SDS011;39345;43.964;25.340;2023-12-20T12:20:01;16.27;;;10.35;;
43835;SDS011;39345;43.964;25.340;2023-12-20T12:22:30;17.52;;;10.55;;
43835;SDS011;39345;43.964;25.340;2023-12-20T12:24:58;17.17;;;11.00;;
43835;SDS011;39345;43.964;25.340;2023-12-20T12:27:27;15.55;;;9.93;;
43835;SDS011;39345;43.964;25.340;2023-12-20T12:30:01;12.68;;;8.82;;
43835;SDS011;39345;43.964;25.340;2023-12-20T12:34:58;13.80;;;8.57;;
43835;SDS011;39345;43.964;25.340;2023-12-20T12:37:26;15.55;;;9.88;;
43835;SDS011;39345;43.964;25.340;2023-12-20T12:39:54;13.55;;;8.88;;
43835;SDS011;39345;43.964;25.340;2023-12-20T12:42:21;13.63;;;9.10;;
43835;SDS011;39345;43.964;25.340;2023-12-20T12:44:52;12.55;;;8.70;;
43835;SDS011;39345;43.964;25.340;2023-12-20T12:47:19;11.88;;;7.30;;
43835;SDS011;39345;43.964;25.340;2023-12-20T12:49:47;10.38;;;7.95;;
43835;SDS011;39345;43.964;25.340;2023-12-20T12:52:16;12.63;;;8.10;;
43835;SDS011;39345;43.964;25.340;2023-12-20T12:54:44;13.57;;;9.27;;
43835;SDS011;39345;43.964;25.340;2023-12-20T12:57:11;14.70;;;9.05;;
43835;SDS011;39345;43.964;25.340;2023-12-20T12:59:39;14.38;;;8.32;;
43835;SDS011;39345;43.964;25.340;2023-12-20T13:02:07;11.93;;;8.40;;
43835;SDS011;39345;43.964;25.340;2023-12-20T13:04:35;16.33;;;9.23;;
43835;SDS011;39345;43.964;25.340;2023-12-20T13:07:02;15.48;;;9.23;;
43835;SDS011;39345;43.964;25.340;2023-12-20T13:09:30;15.02;;;9.60;;
43835;SDS011;39345;43.964;25.340;2023-12-20T13:11:58;18.45;;;9.90;;
43835;SDS011;39345;43.964;25.340;2023-12-20T13:14:26;11.77;;;8.00;;
43835;SDS011;39345;43.964;25.340;2023-12-20T13:16:53;10.00;;;6.97;;
43835;SDS011;39345;43.964;25.340;2023-12-20T13:19:21;13.10;;;8.77;;
43835;SDS011;39345;43.964;25.340;2023-12-20T13:21:49;18.83;;;7.97;;
43835;SDS011;39345;43.964;25.340;2023-12-20T13:24:17;12.55;;;7.18;;
43835;SDS011;39345;43.964;25.340;2023-12-20T13:26:45;12.77;;;7.25;;
43835;SDS011;39345;43.964;25.340;2023-12-20T13:29:12;12.63;;;6.72;;
43835;SDS011;39345;43.964;25.340;2023-12-20T13:31:40;11.65;;;7.75;;
43835;SDS011;39345;43.964;25.340;2023-12-20T13:34:08;13.10;;;8.25;;
43835;SDS011;39345;43.964;25.340;2023-12-20T13:36:36;12.43;;;8.07;;
43835;SDS011;39345;43.964;25.340;2023-12-20T13:39:04;15.80;;;8.52;;
43835;SDS011;39345;43.964;25.340;2023-12-20T13:41:32;13.38;;;8.90;;
43835;SDS011;39345;43.964;25.340;2023-12-20T13:43:59;16.77;;;10.00;;
43835;SDS011;39345;43.964;25.340;2023-12-20T13:46:29;18.10;;;9.73;;
43835;SDS011;39345;43.964;25.340;2023-12-20T13:48:58;17.45;;;10.25;;
43835;SDS011;39345;43.964;25.340;2023-12-20T13:51:26;19.60;;;11.38;;
43835;SDS011;39345;43.964;25.340;2023-12-20T13:53:53;21.67;;;11.35;;
43835;SDS011;39345;43.964;25.340;2023-12-20T13:56:21;19.30;;;11.60;;
43835;SDS011;39345;43.964;25.340;2023-12-20T13:58:49;17.92;;;10.88;;
43835;SDS011;39345;43.964;25.340;2023-12-20T14:01:17;19.30;;;11.10;;
43835;SDS011;39345;43.964;25.340;2023-12-20T14:03:45;21.13;;;10.93;;
43835;SDS011;39345;43.964;25.340;2023-12-20T14:06:12;26.92;;;12.20;;
43835;SDS011;39345;43.964;25.340;2023-12-20T14:08:41;19.58;;;11.57;;
43835;SDS011;39345;43.964;25.340;2023-12-20T14:11:09;18.08;;;11.15;;
43835;SDS011;39345;43.964;25.340;2023-12-20T14:13:37;25.02;;;12.38;;
43835;SDS011;39345;43.964;25.340;2023-12-20T14:16:05;21.77;;;12.38;;
43835;SDS011;39345;43.964;25.340;2023-12-20T14:18:32;28.08;;;13.43;;
43835;SDS011;39345;43.964;25.340;2023-12-20T14:21:00;21.90;;;13.93;;